createdAt,value
2022-10-04T00:01:43.992Z,2.10
2022-10-04T00:04:26.407Z,2.72
2022-10-04T00:07:17.676Z,2.45
2022-10-04T00:09:55.793Z,1.85
2022-10-04T00:12:31.235Z,2.83
2022-10-04T00:15:01.151Z,1.60
2022-10-04T00:17:31.681Z,4.05
2022-10-04T00:19:58.614Z,5.57
2022-10-04T00:22:28.956Z,1.90
2022-10-04T00:25:01.095Z,3.00
2022-10-04T00:27:28.560Z,4.30
2022-10-04T00:30:03.708Z,1.40
2022-10-04T00:32:39.450Z,5.25
2022-10-04T00:35:24.702Z,2.53
2022-10-04T00:37:57.460Z,1.77
2022-10-04T00:40:28.606Z,1.92
2022-10-04T00:43:03.923Z,1.42
2022-10-04T00:45:40.621Z,2.15
2022-10-04T00:48:31.781Z,1.25
2022-10-04T00:51:09.450Z,1.38
2022-10-04T00:53:57.608Z,0.90
2022-10-04T00:56:35.508Z,2.13
2022-10-04T00:59:14.021Z,1.60
2022-10-04T01:01:44.676Z,1.27
2022-10-04T01:04:37.830Z,1.83
2022-10-04T01:07:06.064Z,1.80
2022-10-04T01:09:38.188Z,2.45
2022-10-04T01:12:14.192Z,1.80
2022-10-04T01:14:52.467Z,1.48
2022-10-04T01:17:19.941Z,1.00
2022-10-04T01:19:52.081Z,2.03
2022-10-04T01:22:37.493Z,1.30
2022-10-04T01:25:04.453Z,1.70
2022-10-04T01:27:52.651Z,2.30
2022-10-04T01:30:19.858Z,2.03
2022-10-04T01:32:46.301Z,1.30
2022-10-04T01:35:15.244Z,1.25
2022-10-04T01:37:41.775Z,2.35
2022-10-04T01:40:09.893Z,1.55
2022-10-04T01:42:44.629Z,2.10
2022-10-04T01:45:11.129Z,1.40
2022-10-04T01:47:59.724Z,1.10
2022-10-04T01:50:33.931Z,5.68
2022-10-04T01:53:21.052Z,1.75
2022-10-04T01:56:27.926Z,1.60
2022-10-04T01:59:06.376Z,1.02
2022-10-04T02:01:41.119Z,2.95
2022-10-04T02:04:30.541Z,1.48
2022-10-04T02:07:00.050Z,5.13
2022-10-04T02:09:38.358Z,1.80
2022-10-04T02:12:06.117Z,1.05
2022-10-04T02:14:35.026Z,1.15
2022-10-04T02:17:10.532Z,0.77
2022-10-04T02:19:40.618Z,2.03
2022-10-04T02:22:09.556Z,1.33
2022-10-04T02:24:40.913Z,1.65
2022-10-04T02:27:07.395Z,1.17
2022-10-04T02:29:34.304Z,1.13
2022-10-04T02:32:28.362Z,1.90
2022-10-04T02:34:56.562Z,1.42
2022-10-04T02:37:28.558Z,1.25
2022-10-04T02:40:15.922Z,1.60
2022-10-04T02:42:58.038Z,0.88
2022-10-04T02:45:49.368Z,1.63
2022-10-04T02:48:30.631Z,1.55
2022-10-04T02:51:06.578Z,0.93
2022-10-04T02:53:50.658Z,1.73
2022-10-04T02:56:18.502Z,1.27
2022-10-04T02:58:52.347Z,1.65
2022-10-04T03:01:28.305Z,2.25
2022-10-04T03:03:56.888Z,1.65
2022-10-04T03:06:28.256Z,0.98
2022-10-04T03:09:02.339Z,0.63
2022-10-04T03:14:01.027Z,1.33
2022-10-04T03:16:33.088Z,0.93
2022-10-04T03:19:00.595Z,0.90
2022-10-04T03:21:27.548Z,1.33
2022-10-04T03:23:54.131Z,1.13
2022-10-04T03:26:36.958Z,1.15
2022-10-04T03:29:09.538Z,0.57
2022-10-04T03:31:41.809Z,0.70
2022-10-04T03:34:18.839Z,0.82
2022-10-04T03:36:54.318Z,2.05
2022-10-04T03:39:34.551Z,0.77
2022-10-04T03:42:08.278Z,1.80
2022-10-04T03:44:34.854Z,1.55
2022-10-04T03:47:02.372Z,0.40
2022-10-04T03:49:41.334Z,2.45
2022-10-04T03:52:16.109Z,0.98
2022-10-04T03:54:43.206Z,2.30
2022-10-04T03:57:30.307Z,1.33
2022-10-04T03:59:58.346Z,1.35
2022-10-04T04:02:43.701Z,1.38
2022-10-04T04:05:19.320Z,2.47
2022-10-04T04:07:54.203Z,0.70
2022-10-04T04:10:28.865Z,2.65
2022-10-04T04:13:00.775Z,2.55
2022-10-04T04:15:33.016Z,0.70
2022-10-04T04:18:10.930Z,2.22
2022-10-04T04:20:38.916Z,0.50
2022-10-04T04:23:17.305Z,0.88
2022-10-04T04:25:55.747Z,3.38
2022-10-04T04:28:40.463Z,2.00
2022-10-04T04:31:20.725Z,0.98
2022-10-04T04:34:03.296Z,4.43
2022-10-04T04:36:32.072Z,0.77
2022-10-04T04:39:36.515Z,1.98
2022-10-04T04:42:19.224Z,3.03
2022-10-04T04:44:52.812Z,0.73
2022-10-04T04:47:29.982Z,1.40
2022-10-04T04:50:01.963Z,0.95
2022-10-04T04:52:29.568Z,3.42
2022-10-04T04:54:56.568Z,3.42
2022-10-04T04:57:23.611Z,3.05
2022-10-04T04:59:56.171Z,3.17
2022-10-04T05:02:37.215Z,1.35
2022-10-04T05:05:36.047Z,2.35
2022-10-04T05:08:20.970Z,1.98
2022-10-04T05:10:58.336Z,4.28
2022-10-04T05:13:41.530Z,2.90
2022-10-04T05:16:36.783Z,1.02
2022-10-04T05:19:08.434Z,1.02
2022-10-04T05:21:38.596Z,3.55
2022-10-04T05:24:18.795Z,3.72
2022-10-04T05:26:50.529Z,2.58
2022-10-04T05:29:23.619Z,1.88
2022-10-04T05:32:21.616Z,3.50
2022-10-04T05:34:50.005Z,2.85
2022-10-04T05:37:29.551Z,3.15
2022-10-04T05:39:56.050Z,3.33
2022-10-04T05:42:28.961Z,1.52
2022-10-04T05:44:57.849Z,1.30
2022-10-04T05:47:30.366Z,4.57
2022-10-04T05:50:00.881Z,2.70
2022-10-04T05:52:38.462Z,1.67
2022-10-04T05:55:37.539Z,5.32
2022-10-04T05:58:19.101Z,1.52
2022-10-04T06:01:07.166Z,2.35
2022-10-04T06:03:40.826Z,3.45
2022-10-04T06:06:24.332Z,2.22
2022-10-04T06:09:34.232Z,2.10
2022-10-04T06:12:20.118Z,1.02
2022-10-04T06:15:06.469Z,2.60
2022-10-04T06:17:47.367Z,3.15
2022-10-04T06:20:38.699Z,1.05
2022-10-04T06:23:13.735Z,2.20
2022-10-04T06:25:51.417Z,1.90
2022-10-04T06:28:32.224Z,1.30
2022-10-04T06:31:16.253Z,1.60
2022-10-04T06:33:54.565Z,1.58
2022-10-04T06:36:45.518Z,1.55
2022-10-04T06:39:37.235Z,2.25
2022-10-04T06:42:34.057Z,3.10
2022-10-04T06:45:19.363Z,0.88
2022-10-04T06:48:06.200Z,2.45
2022-10-04T06:50:51.316Z,2.05
2022-10-04T06:53:43.223Z,2.25
2022-10-04T06:56:31.514Z,2.72
2022-10-04T06:59:31.216Z,2.70
2022-10-04T07:02:04.068Z,2.08
2022-10-04T07:07:37.204Z,2.05
2022-10-04T07:10:50.826Z,1.73
2022-10-04T07:13:38.426Z,1.75
2022-10-04T07:16:08.437Z,1.08
2022-10-04T07:18:37.676Z,2.75
2022-10-04T07:21:12.440Z,0.90
2022-10-04T07:23:56.292Z,4.18
2022-10-04T07:26:28.886Z,2.75
2022-10-04T07:29:19.134Z,1.38
2022-10-04T07:31:54.206Z,1.80
2022-10-04T07:34:26.084Z,1.75
2022-10-04T07:36:56.610Z,0.98
2022-10-04T07:39:45.970Z,1.35
2022-10-04T07:42:23.073Z,1.05
2022-10-04T07:45:12.426Z,0.60
2022-10-04T07:47:39.015Z,1.48
2022-10-04T07:50:34.549Z,1.15
2022-10-04T07:53:16.170Z,1.08
2022-10-04T07:56:08.063Z,0.60
2022-10-04T07:59:24.163Z,2.50
2022-10-04T08:02:12.819Z,1.55
2022-10-04T08:05:01.440Z,1.48
2022-10-04T08:08:04.795Z,1.02
2022-10-04T08:11:05.260Z,0.65
2022-10-04T08:14:00.095Z,2.65
2022-10-04T08:19:18.341Z,0.43
2022-10-04T08:22:02.574Z,0.70
2022-10-04T08:24:54.271Z,0.88
2022-10-04T08:27:20.586Z,1.27
2022-10-04T08:30:02.083Z,1.10
2022-10-04T08:32:47.157Z,0.43
2022-10-04T08:35:43.163Z,1.45
2022-10-04T08:38:35.924Z,0.65
2022-10-04T08:41:11.315Z,1.23
2022-10-04T08:43:59.748Z,1.98
2022-10-04T08:46:52.959Z,0.60
2022-10-04T08:49:38.187Z,0.63
2022-10-04T08:52:26.950Z,1.50
2022-10-04T08:55:14.720Z,1.13
2022-10-04T08:57:56.332Z,0.63
2022-10-04T09:00:41.167Z,1.25
2022-10-04T09:03:44.940Z,0.88
2022-10-04T09:06:36.387Z,1.05
2022-10-04T09:09:42.398Z,0.70
2022-10-04T09:12:36.363Z,0.70
2022-10-04T09:15:22.440Z,1.00
2022-10-04T09:18:01.407Z,0.80
2022-10-04T09:21:01.069Z,0.60
2022-10-04T09:23:52.309Z,0.40
2022-10-04T09:26:44.755Z,0.68
2022-10-04T09:29:36.509Z,0.10
2022-10-04T09:32:14.883Z,0.68
2022-10-04T09:35:11.704Z,0.52
2022-10-04T09:37:59.935Z,0.40
2022-10-04T09:40:54.319Z,0.38
2022-10-04T09:43:42.596Z,0.82
2022-10-04T09:46:16.427Z,0.40
2022-10-04T09:48:57.455Z,0.60
2022-10-04T09:51:42.664Z,0.55
2022-10-04T09:54:40.042Z,0.52
2022-10-04T09:58:00.118Z,2.50
2022-10-04T10:00:35.154Z,1.60
2022-10-04T10:03:28.783Z,4.10
2022-10-04T10:06:13.641Z,4.35
2022-10-04T10:09:10.285Z,3.75
2022-10-04T10:12:29.122Z,6.25
2022-10-04T10:14:55.646Z,10.85
2022-10-04T10:17:24.988Z,6.22
2022-10-04T10:20:03.583Z,9.23
2022-10-04T10:23:07.339Z,12.35
2022-10-04T10:26:11.535Z,9.57
2022-10-04T10:28:51.759Z,15.57
2022-10-04T10:31:18.231Z,11.68
2022-10-04T10:34:12.565Z,12.95
2022-10-04T10:37:00.943Z,11.52
2022-10-04T10:40:02.509Z,19.98
2022-10-04T10:42:58.087Z,17.17
2022-10-04T10:45:45.666Z,16.95
2022-10-04T10:48:30.358Z,21.45
2022-10-04T10:51:31.345Z,15.98
2022-10-04T10:54:16.044Z,17.23
2022-10-04T10:57:28.080Z,17.73
2022-10-04T11:00:00.595Z,21.55
2022-10-04T11:03:11.729Z,18.67
2022-10-04T11:06:15.343Z,17.10
2022-10-04T11:09:03.466Z,10.73
2022-10-04T11:11:48.527Z,10.88
2022-10-04T11:14:43.706Z,13.13
2022-10-04T11:17:20.850Z,21.63
2022-10-04T11:20:15.524Z,15.50
2022-10-04T11:23:11.260Z,16.63
2022-10-04T11:25:46.736Z,13.82
2022-10-04T11:28:49.010Z,15.55
2022-10-04T11:31:28.837Z,9.38
2022-10-04T11:34:17.634Z,12.77
2022-10-04T11:36:53.929Z,12.38
2022-10-04T11:39:35.273Z,12.80
2022-10-04T11:42:18.219Z,13.25
2022-10-04T11:45:00.396Z,7.95
2022-10-04T11:47:47.997Z,11.77
2022-10-04T11:50:41.404Z,10.90
2022-10-04T11:53:56.091Z,11.60
2022-10-04T11:56:44.697Z,12.45
2022-10-04T12:00:10.066Z,10.80
2022-10-04T12:03:10.923Z,9.65
2022-10-04T12:06:09.166Z,11.52
2022-10-04T12:09:04.874Z,9.32
2022-10-04T12:12:00.034Z,10.88
2022-10-04T12:14:29.248Z,9.00
2022-10-04T12:17:20.602Z,7.40
2022-10-04T12:20:06.569Z,11.82
2022-10-04T12:22:45.527Z,7.95
2022-10-04T12:25:40.388Z,11.02
2022-10-04T12:28:47.789Z,11.55
2022-10-04T12:31:30.072Z,9.27
2022-10-04T12:34:00.312Z,12.98
2022-10-04T12:36:49.094Z,10.52
2022-10-04T12:39:30.252Z,7.50
2022-10-04T12:42:06.455Z,10.25
2022-10-04T12:44:40.779Z,13.25
2022-10-04T12:47:44.821Z,7.30
2022-10-04T12:50:31.462Z,8.43
2022-10-04T12:53:31.985Z,8.18
2022-10-04T12:56:19.030Z,7.50
2022-10-04T12:59:19.344Z,10.75
2022-10-04T13:02:04.779Z,7.13
2022-10-04T13:04:52.638Z,7.93
2022-10-04T13:07:43.918Z,7.40
2022-10-04T13:10:51.726Z,9.63
2022-10-04T13:13:29.926Z,5.82
2022-10-04T13:19:35.741Z,7.37
2022-10-04T13:22:51.414Z,8.30
2022-10-04T13:25:39.267Z,6.75
2022-10-04T13:28:39.687Z,6.78
2022-10-04T13:31:22.721Z,8.55
2022-10-04T13:34:17.168Z,7.80
2022-10-04T13:36:54.164Z,5.65
2022-10-04T13:39:52.890Z,7.68
2022-10-04T13:42:50.092Z,5.15
2022-10-04T13:45:41.538Z,7.25
2022-10-04T13:48:34.635Z,5.68
2022-10-04T13:51:26.147Z,4.63
2022-10-04T13:54:33.842Z,6.13
2022-10-04T13:57:15.871Z,7.13
2022-10-04T13:59:52.295Z,8.32
2022-10-04T14:02:52.292Z,5.82
2022-10-04T14:05:43.266Z,5.05
2022-10-04T14:08:25.995Z,8.52
2022-10-04T14:11:28.008Z,4.45
2022-10-04T14:14:12.196Z,6.53
2022-10-04T14:16:56.182Z,5.13
2022-10-04T14:19:35.065Z,5.95
2022-10-04T14:22:32.186Z,6.03
2022-10-04T14:25:17.560Z,5.35
2022-10-04T14:28:13.281Z,7.82
2022-10-04T14:31:02.804Z,6.05
2022-10-04T14:33:54.671Z,5.57
2022-10-04T14:36:45.143Z,5.20
2022-10-04T14:39:31.204Z,6.47
2022-10-04T14:42:05.095Z,4.53
2022-10-04T14:44:58.756Z,4.28
2022-10-04T14:47:31.238Z,7.60
2022-10-04T14:50:17.890Z,5.82
2022-10-04T14:52:54.175Z,5.05
2022-10-04T14:55:49.550Z,8.45
2022-10-04T14:58:22.038Z,7.25
2022-10-04T15:01:13.470Z,7.72
2022-10-04T15:03:49.239Z,7.93
2022-10-04T15:06:23.243Z,7.10
2022-10-04T15:09:17.872Z,7.60
2022-10-04T15:12:21.638Z,6.82
2022-10-04T15:15:02.772Z,7.95
2022-10-04T15:17:37.959Z,7.40
2022-10-04T15:20:25.769Z,10.32
2022-10-04T15:22:57.214Z,8.30
2022-10-04T15:25:41.776Z,8.23
2022-10-04T15:28:32.890Z,7.50
2022-10-04T15:31:30.175Z,7.45
2022-10-04T15:34:13.237Z,7.55
2022-10-04T15:36:51.592Z,6.95
2022-10-04T15:39:35.491Z,10.15
2022-10-04T15:42:14.719Z,8.05
2022-10-04T15:44:53.551Z,10.98
2022-10-04T15:47:31.070Z,13.13
2022-10-04T15:50:39.081Z,8.68
2022-10-04T15:53:25.566Z,7.30
2022-10-04T15:56:00.681Z,10.07
2022-10-04T15:58:58.291Z,5.57
2022-10-04T16:01:49.166Z,10.25
2022-10-04T16:04:31.913Z,9.13
2022-10-04T16:07:10.405Z,10.88
2022-10-04T16:09:51.383Z,7.50
2022-10-04T16:12:20.393Z,6.45
2022-10-04T16:14:53.424Z,6.47
2022-10-04T16:17:44.035Z,4.30
2022-10-04T16:20:34.386Z,8.60
2022-10-04T16:23:35.897Z,6.07
2022-10-04T16:26:06.986Z,6.93
2022-10-04T16:29:11.674Z,5.93
2022-10-04T16:31:47.359Z,5.65
2022-10-04T16:34:19.917Z,6.05
2022-10-04T16:36:52.419Z,6.13
2022-10-04T16:39:54.999Z,6.03
2022-10-04T16:42:32.767Z,9.63
2022-10-04T16:45:34.839Z,5.88
2022-10-04T16:48:37.898Z,6.60
2022-10-04T16:51:13.233Z,5.50
2022-10-04T16:54:13.905Z,5.57
2022-10-04T16:57:00.474Z,6.10
2022-10-04T16:59:44.891Z,6.18
2022-10-04T17:08:11.302Z,4.10
2022-10-04T17:11:02.171Z,3.70
2022-10-04T17:13:43.619Z,7.75
2022-10-04T17:16:22.777Z,5.30
2022-10-04T17:19:30.731Z,4.85
2022-10-04T17:22:07.360Z,8.60
2022-10-04T17:24:57.901Z,4.75
2022-10-04T17:27:46.207Z,4.95
2022-10-04T17:30:18.291Z,7.28
2022-10-04T17:33:19.995Z,4.05
2022-10-04T17:36:23.639Z,3.58
2022-10-04T17:38:56.134Z,8.73
2022-10-04T17:42:07.880Z,6.57
2022-10-04T17:45:00.552Z,5.28
2022-10-04T17:47:59.915Z,4.93
2022-10-04T17:51:06.533Z,4.43
2022-10-04T17:53:55.215Z,3.85
2022-10-04T17:56:36.687Z,4.88
2022-10-04T17:59:19.259Z,6.20
2022-10-04T18:01:51.896Z,3.30
2022-10-04T18:04:27.936Z,4.82
2022-10-04T18:07:20.701Z,5.80
2022-10-04T18:09:59.063Z,3.33
2022-10-04T18:12:35.467Z,6.75
2022-10-04T18:15:26.695Z,2.83
2022-10-04T18:18:07.139Z,4.28
2022-10-04T18:20:38.646Z,3.00
2022-10-04T18:23:25.855Z,4.40
2022-10-04T18:25:57.386Z,3.15
2022-10-04T18:28:24.834Z,3.45
2022-10-04T18:31:00.142Z,4.70
2022-10-04T18:33:31.692Z,3.13
2022-10-04T18:36:19.105Z,6.50
2022-10-04T18:38:58.175Z,4.57
2022-10-04T18:41:44.802Z,4.50
2022-10-04T18:44:16.389Z,2.47
2022-10-04T18:46:48.033Z,3.78
2022-10-04T18:49:27.043Z,2.70
2022-10-04T18:52:11.558Z,3.55
2022-10-04T18:54:53.162Z,2.15
2022-10-04T18:58:21.840Z,4.45
2022-10-04T19:01:16.919Z,3.20
2022-10-04T19:03:59.859Z,4.75
2022-10-04T19:06:30.651Z,3.63
2022-10-04T19:09:18.219Z,2.28
2022-10-04T19:11:54.069Z,3.05
2022-10-04T19:14:36.724Z,2.47
2022-10-04T19:17:21.167Z,2.97
2022-10-04T19:22:23.051Z,2.08
2022-10-04T19:25:21.910Z,3.05
2022-10-04T19:28:09.898Z,2.45
2022-10-04T19:30:48.193Z,2.17
2022-10-04T19:33:31.107Z,4.00
2022-10-04T19:36:06.459Z,3.40
2022-10-04T19:38:38.874Z,2.47
2022-10-04T19:41:30.247Z,2.97
2022-10-04T19:44:20.173Z,1.95
2022-10-04T19:46:56.067Z,1.73
2022-10-04T19:49:51.042Z,3.53
2022-10-04T19:52:23.380Z,5.07
2022-10-04T19:54:59.807Z,3.95
2022-10-04T19:57:51.802Z,3.05
2022-10-04T20:00:20.193Z,1.70
2022-10-04T20:02:48.962Z,3.03
2022-10-04T20:05:28.040Z,3.35
2022-10-04T20:08:12.796Z,2.95
2022-10-04T20:10:40.081Z,2.42
2022-10-04T20:13:26.776Z,2.25
2022-10-04T20:15:54.987Z,2.40
2022-10-04T20:18:33.301Z,4.47
2022-10-04T20:21:03.337Z,5.70
2022-10-04T20:23:38.965Z,1.40
2022-10-04T20:26:14.870Z,2.22
2022-10-04T20:28:42.692Z,3.20
2022-10-04T20:31:30.670Z,1.95
2022-10-04T20:34:33.564Z,3.17
2022-10-04T20:37:00.069Z,2.58
2022-10-04T20:39:41.671Z,2.03
2022-10-04T20:42:27.181Z,2.10
2022-10-04T20:45:03.652Z,3.75
2022-10-04T20:47:41.731Z,2.10
2022-10-04T20:50:11.831Z,1.58
2022-10-04T20:52:44.643Z,1.48
2022-10-04T20:55:21.101Z,1.70
2022-10-04T20:57:47.759Z,1.48
2022-10-04T21:00:27.775Z,3.08
2022-10-04T21:03:08.079Z,2.05
2022-10-04T21:05:34.585Z,4.05
2022-10-04T21:08:15.441Z,2.10
2022-10-04T21:11:02.339Z,1.10
2022-10-04T21:13:52.225Z,1.48
2022-10-04T21:16:42.287Z,1.92
2022-10-04T21:19:43.600Z,1.65
2022-10-04T21:22:15.952Z,1.05
2022-10-04T21:24:43.903Z,1.80
2022-10-04T21:27:24.658Z,2.42
2022-10-04T21:29:53.587Z,3.63
2022-10-04T21:32:21.129Z,3.83
2022-10-04T21:34:53.471Z,2.42
2022-10-04T21:37:21.355Z,2.42
2022-10-04T21:39:48.010Z,1.70
2022-10-04T21:42:14.617Z,0.85
2022-10-04T21:44:41.039Z,1.38
2022-10-04T21:47:07.463Z,1.33
2022-10-04T21:49:34.835Z,1.55
2022-10-04T21:52:01.323Z,1.70
2022-10-04T21:54:27.866Z,1.35
2022-10-04T21:56:54.257Z,1.50
2022-10-04T21:59:40.745Z,1.42
2022-10-04T22:02:07.782Z,1.23
2022-10-04T22:04:34.681Z,0.85
2022-10-04T22:07:01.233Z,2.33
2022-10-04T22:09:27.696Z,1.42
2022-10-04T22:11:54.076Z,1.35
2022-10-04T22:14:20.496Z,1.25
2022-10-04T22:16:47.250Z,1.38
2022-10-04T22:19:13.867Z,1.17
2022-10-04T22:21:40.286Z,1.25
2022-10-04T22:24:14.952Z,1.90
2022-10-04T22:26:41.333Z,1.25
2022-10-04T22:29:13.306Z,1.10
2022-10-04T22:31:43.948Z,1.20
2022-10-04T22:34:20.176Z,1.23
2022-10-04T22:36:49.772Z,1.73
2022-10-04T22:39:20.763Z,1.40
2022-10-04T22:41:59.543Z,2.67
2022-10-04T22:44:29.829Z,1.55
2022-10-04T22:46:58.991Z,1.75
2022-10-04T22:49:27.695Z,1.77
2022-10-04T22:51:56.431Z,2.05
2022-10-04T22:54:25.778Z,1.58
2022-10-04T22:56:53.057Z,2.63
2022-10-04T22:59:21.297Z,1.00
2022-10-04T23:01:48.187Z,1.30
2022-10-04T23:04:22.685Z,1.20
2022-10-04T23:06:50.184Z,0.90
2022-10-04T23:09:16.912Z,0.88
2022-10-04T23:11:43.886Z,0.88
2022-10-04T23:14:11.171Z,1.40
2022-10-04T23:16:38.778Z,1.30
2022-10-04T23:19:19.691Z,1.23
2022-10-04T23:21:48.592Z,1.42
2022-10-04T23:24:22.897Z,1.92
2022-10-04T23:26:54.631Z,1.08
2022-10-04T23:29:31.940Z,0.82
2022-10-04T23:31:58.496Z,1.58
2022-10-04T23:34:33.451Z,1.55
2022-10-04T23:36:59.974Z,1.42
2022-10-04T23:39:31.801Z,1.13
2022-10-04T23:42:05.682Z,1.00
2022-10-04T23:44:37.072Z,1.73
2022-10-04T23:47:14.174Z,1.20
2022-10-04T23:49:40.755Z,1.85
2022-10-04T23:52:14.404Z,0.90
2022-10-04T23:54:40.837Z,0.85
2022-10-04T23:57:10.718Z,2.00
2022-10-04T23:59:38.760Z,1.00
